Time;durP1;ratioP1;P1;durP2;ratioP2;P2;SDS_P1;SDS_P2;PMS_P1;PMS_P2;Temp;Humidity;BMP_temperature;BMP_pressure;BME280_temperature;BME280_humidity;BME280_pressure;Samples;Min_cycle;Max_cycle;Signal;HPM_P1;HPM_P2
2021/07/29 00:01:10;;;;;;;15.32;2.33;;;;;;;16.27;65.49;100745.97;5044579;28;20037;-85
2021/07/29 00:03:37;;;;;;;11.23;1.98;;;;;;;16.37;65.44;100743.41;5044179;28;20029;-86
2021/07/29 00:06:05;;;;;;;10.05;1.95;;;;;;;16.23;65.35;100747.16;5027298;28;20104;-87
2021/07/29 00:08:31;;;;;;;8.52;1.92;;;;;;;16.35;65.16;100748.03;5045478;28;20021;-88
2021/07/29 00:10:59;;;;;;;8.82;1.85;;;;;;;16.35;65.06;100732.84;5044185;28;20079;-87
2021/07/29 00:13:24;;;;;;;6.88;1.80;;;;;;;16.48;65.00;100731.88;5043685;28;20022;-86
2021/07/29 00:15:53;;;;;;;9.20;1.90;;;;;;;16.38;65.38;100732.59;5047367;28;20060;-86
2021/07/29 00:21:06;;;;;;;15.63;2.00;;;;;;;16.45;65.68;100714.31;5046791;28;20021;-87
2021/07/29 00:23:36;;;;;;;7.53;1.60;;;;;;;16.39;65.98;100704.13;5045612;28;20105;-85
2021/07/29 00:26:04;;;;;;;9.77;1.98;;;;;;;16.44;66.41;100704.59;5044992;28;20052;-86
2021/07/29 00:28:29;;;;;;;8.55;1.90;;;;;;;16.51;66.06;100703.13;5048005;28;20026;-85
2021/07/29 00:30:57;;;;;;;8.07;1.75;;;;;;;16.38;66.18;100711.25;5045198;28;20048;-87
2021/07/29 00:33:26;;;;;;;8.98;1.90;;;;;;;16.41;66.56;100704.84;5086630;22;20033;-90
2021/07/29 00:35:54;;;;;;;7.80;1.90;;;;;;;16.15;68.37;100710.44;5083352;28;20036;-90
2021/07/29 00:38:22;;;;;;;13.00;2.22;;;;;;;15.99;70.31;100706.31;5119172;28;20032;-91
2021/07/29 00:40:49;;;;;;;7.57;1.95;;;;;;;15.87;70.89;100707.22;5085104;28;20016;-91
2021/07/29 00:43:17;;;;;;;8.75;1.85;;;;;;;15.77;71.91;100693.75;5081031;28;20070;-91
2021/07/29 00:45:43;;;;;;;6.22;1.73;;;;;;;15.70;71.72;100704.06;5062198;28;20087;-92
2021/07/29 00:48:13;;;;;;;11.82;1.92;;;;;;;15.59;72.56;100704.88;5058044;28;20195;-93
2021/07/29 00:50:44;;;;;;;7.75;1.80;;;;;;;15.43;73.45;100730.03;5075260;28;20028;-95
2021/07/29 00:53:22;;;;;;;8.88;2.25;;;;;;;15.54;73.49;100761.22;5155875;22;20155;-93
2021/07/29 00:56:06;;;;;;;6.25;1.65;;;;;;;15.35;69.45;100790.19;5058878;22;20072;-92
2021/07/29 00:58:43;;;;;;;5.00;1.65;;;;;;;14.67;71.43;100778.16;5004642;28;20033;-91
2021/07/29 01:01:23;;;;;;;13.90;2.30;;;;;;;14.13;74.53;100780.97;5025605;28;20054;-92
2021/07/29 01:03:49;;;;;;;10.43;2.33;;;;;;;13.66;76.44;100768.16;5070264;23;20053;-90
2021/07/29 01:06:16;;;;;;;6.72;2.13;;;;;;;13.50;77.80;100739.13;5022310;28;20068;-92
2021/07/29 01:09:10;;;;;;;8.75;2.13;;;;;;;13.21;79.22;100774.56;5009104;28;20033;-90
2021/07/29 01:11:41;;;;;;;9.75;2.50;;;;;;;13.12;80.51;100750.44;5020272;28;20524;-90
2021/07/29 01:14:11;;;;;;;13.90;2.92;;;;;;;13.24;80.48;100741.66;4964844;28;20033;-90
2021/07/29 01:16:44;;;;;;;10.40;2.58;;;;;;;13.07;80.05;100735.66;4993046;28;20041;-89
2021/07/29 01:19:15;;;;;;;10.30;2.30;;;;;;;13.13;79.44;100738.88;4995137;28;20049;-89
2021/07/29 01:21:46;;;;;;;11.38;2.50;;;;;;;13.13;79.10;100733.56;5010397;28;20060;-89
2021/07/29 01:24:13;;;;;;;7.97;2.40;;;;;;;13.12;80.03;100726.53;5019081;28;20029;-89
2021/07/29 01:26:45;;;;;;;13.00;2.80;;;;;;;13.23;80.59;100736.44;5020817;28;20040;-87
2021/07/29 01:29:16;;;;;;;14.65;3.17;;;;;;;13.14;81.04;100743.22;4989264;28;20034;-86
2021/07/29 01:31:58;;;;;;;11.13;3.10;;;;;;;13.10;81.71;100731.94;5004398;28;20030;-89
2021/07/29 01:34:30;;;;;;;15.32;3.35;;;;;;;13.13;81.79;100738.88;5016210;28;20065;-87
2021/07/29 01:36:58;;;;;;;14.63;2.85;;;;;;;13.18;81.71;100740.25;5012320;28;20034;-87
2021/07/29 01:39:34;;;;;;;13.85;2.88;;;;;;;13.16;81.77;100742.16;5034630;28;20045;-87
2021/07/29 01:42:05;;;;;;;14.68;3.13;;;;;;;13.18;81.73;100742.91;4997876;28;20033;-89
2021/07/29 01:44:53;;;;;;;12.73;2.67;;;;;;;13.22;82.05;100735.63;5045605;28;20017;-86
2021/07/29 01:47:27;;;;;;;17.45;3.42;;;;;;;13.42;81.77;100736.94;5046143;28;20030;-88
2021/07/29 01:50:23;;;;;;;7.13;3.03;;;;;;;13.42;81.80;100739.59;5050092;28;20018;-87
2021/07/29 01:52:50;;;;;;;14.88;2.97;;;;;;;13.54;81.44;100732.63;5055824;28;20018;-87
2021/07/29 01:55:41;;;;;;;13.80;3.03;;;;;;;13.68;81.13;100736.19;5020038;28;20058;-87
2021/07/29 01:58:23;;;;;;;10.50;3.55;;;;;;;13.59;82.15;100727.00;5057302;28;20048;-87
2021/07/29 02:01:08;;;;;;;15.07;3.90;;;;;;;13.67;82.01;100716.72;5057936;28;20013;-86
2021/07/29 02:03:44;;;;;;;9.45;3.30;;;;;;;13.71;81.85;100720.03;5070496;28;20058;-86
2021/07/29 02:06:37;;;;;;;11.95;3.70;;;;;;;13.82;81.81;100713.97;5068932;28;20458;-88
2021/07/29 02:09:06;;;;;;;13.00;3.67;;;;;;;13.89;81.53;100712.59;5014421;28;20034;-87
2021/07/29 02:11:55;;;;;;;11.57;3.58;;;;;;;13.93;81.83;100721.19;4984520;28;20030;-86
2021/07/29 02:14:28;;;;;;;15.15;3.88;;;;;;;13.94;82.02;100722.91;5028374;28;20030;-86
2021/07/29 02:16:58;;;;;;;13.43;3.45;;;;;;;13.86;82.26;100723.44;4969780;29;20098;-87
2021/07/29 02:19:28;;;;;;;13.02;3.90;;;;;;;13.87;81.82;100725.13;4972469;28;20036;-87
2021/07/29 02:21:59;;;;;;;11.07;3.38;;;;;;;13.86;82.54;100725.22;4940629;29;20081;-88
2021/07/29 02:24:24;;;;;;;8.98;3.00;;;;;;;13.84;81.98;100725.31;4975523;29;20105;-89
2021/07/29 02:26:51;;;;;;;11.45;2.92;;;;;;;13.79;81.14;100730.97;4975678;29;20043;-90
2021/07/29 02:29:20;;;;;;;8.25;2.30;;;;;;;13.89;79.98;100728.53;4975547;29;20040;-89
2021/07/29 02:31:51;;;;;;;9.05;2.30;;;;;;;13.90;77.76;100724.91;4942595;29;20035;-87
2021/07/29 02:34:25;;;;;;;5.72;1.60;;;;;;;13.97;75.08;100735.09;4956553;29;20162;-88
2021/07/29 02:37:01;;;;;;;5.20;1.80;;;;;;;14.00;74.68;100727.78;4956430;28;20043;-89
2021/07/29 02:39:30;;;;;;;7.05;1.90;;;;;;;14.09;75.07;100739.56;4984929;28;20077;-87
2021/07/29 02:42:03;;;;;;;6.63;1.80;;;;;;;14.11;75.11;100736.81;4980576;28;20018;-87
2021/07/29 02:44:28;;;;;;;11.15;2.17;;;;;;;14.13;75.41;100749.06;4964826;28;20042;-87
2021/07/29 02:46:57;;;;;;;11.52;2.17;;;;;;;14.22;75.31;100744.91;4996923;28;20038;-88
2021/07/29 02:49:25;;;;;;;8.63;2.13;;;;;;;14.28;75.14;100736.47;5011391;28;20042;-90
2021/07/29 02:51:51;;;;;;;6.82;1.98;;;;;;;14.38;75.12;100746.47;5013360;28;20105;-86
2021/07/29 02:54:40;;;;;;;8.25;1.95;;;;;;;14.35;75.19;100757.34;4981585;28;20030;-86
2021/07/29 02:57:09;;;;;;;6.65;1.98;;;;;;;14.35;74.89;100752.88;4996628;28;20049;-87
2021/07/29 02:59:45;;;;;;;5.28;1.98;;;;;;;14.30;74.49;100747.88;4999263;28;20034;-86
2021/07/29 03:02:17;;;;;;;8.45;2.10;;;;;;;14.35;74.35;100744.03;5056654;28;20052;-86
2021/07/29 03:04:49;;;;;;;7.55;1.80;;;;;;;14.45;74.69;100747.72;5041829;28;20053;-87
2021/07/29 03:07:26;;;;;;;6.13;2.05;;;;;;;14.40;74.45;100749.88;5060048;28;20033;-86
2021/07/29 03:09:52;;;;;;;6.93;2.10;;;;;;;14.43;74.22;100749.66;5057269;28;20041;-89
2021/07/29 03:12:22;;;;;;;7.00;2.03;;;;;;;14.53;73.33;100749.84;5040329;28;20104;-90
2021/07/29 03:14:49;;;;;;;7.97;2.30;;;;;;;14.56;72.88;100762.94;5058895;28;20029;-87
2021/07/29 03:17:18;;;;;;;3.80;2.00;;;;;;;14.65;72.99;100756.13;5059784;28;20005;-87
2021/07/29 03:19:50;;;;;;;8.02;1.90;;;;;;;14.66;73.14;100749.81;5059639;28;20010;-86
2021/07/29 03:22:17;;;;;;;6.25;1.98;;;;;;;14.62;73.39;100762.50;5058684;28;20037;-87
2021/07/29 03:24:46;;;;;;;6.90;2.10;;;;;;;14.63;73.56;100753.56;5071941;28;20518;-87
2021/07/29 03:27:15;;;;;;;6.40;1.88;;;;;;;14.67;72.60;100763.00;5055057;28;20041;-88
2021/07/29 03:29:45;;;;;;;7.22;2.10;;;;;;;14.78;72.11;100761.41;5053419;28;20052;-88
2021/07/29 03:32:13;;;;;;;6.53;2.10;;;;;;;14.91;72.22;100759.59;5049199;28;20104;-87
2021/07/29 03:34:42;;;;;;;5.30;1.92;;;;;;;14.78;73.42;100761.41;5035872;28;20021;-88
2021/07/29 03:37:18;;;;;;;10.23;2.10;;;;;;;14.65;74.39;100758.78;5049276;28;20118;-88
2021/07/29 03:39:44;;;;;;;5.75;2.03;;;;;;;14.60;74.16;100759.09;5070349;28;20085;-87
2021/07/29 03:42:09;;;;;;;11.43;2.25;;;;;;;14.56;74.06;100758.47;5051484;28;20045;-87
2021/07/29 03:44:39;;;;;;;9.48;2.83;;;;;;;14.58;74.15;100751.22;5034616;28;20041;-87
2021/07/29 03:47:10;;;;;;;5.22;1.85;;;;;;;14.60;74.37;100760.91;5033480;28;20041;-89
2021/07/29 03:49:40;;;;;;;7.28;2.40;;;;;;;14.56;74.32;100762.94;5052294;28;20017;-87
2021/07/29 03:52:07;;;;;;;6.90;2.10;;;;;;;14.62;73.93;100759.00;5048110;28;20408;-88
2021/07/29 03:54:34;;;;;;;7.13;2.25;;;;;;;14.70;72.53;100760.13;5050402;28;20056;-87
2021/07/29 03:57:08;;;;;;;6.82;1.95;;;;;;;14.70;71.76;100754.81;5052556;28;20075;-87
2021/07/29 03:59:38;;;;;;;6.38;2.00;;;;;;;14.79;70.33;100752.50;5050653;28;20025;-87
2021/07/29 04:02:11;;;;;;;6.28;1.90;;;;;;;14.88;69.92;100753.63;5050631;28;20026;-86
2021/07/29 04:04:47;;;;;;;5.53;2.10;;;;;;;14.92;70.33;100753.28;5050466;28;20057;-87
2021/07/29 04:07:17;;;;;;;7.68;1.88;;;;;;;14.92;71.08;100758.59;5067538;28;20062;-87
2021/07/29 04:09:46;;;;;;;11.77;2.13;;;;;;;14.90;71.49;100763.22;5052833;28;20037;-86
2021/07/29 04:12:19;;;;;;;8.05;2.13;;;;;;;14.87;71.07;100758.13;5051210;28;20360;-87
2021/07/29 04:14:54;;;;;;;7.10;1.88;;;;;;;14.99;70.09;100768.81;5050789;28;20029;-87
2021/07/29 04:17:21;;;;;;;5.93;1.95;;;;;;;15.11;70.18;100770.56;5051326;28;20534;-88
2021/07/29 04:19:48;;;;;;;8.80;1.98;;;;;;;15.11;70.45;100773.25;5035243;28;20022;-88
2021/07/29 04:22:17;;;;;;;10.98;1.85;;;;;;;15.04;70.95;100780.84;5003547;28;20472;-85
2021/07/29 04:24:46;;;;;;;5.32;2.03;;;;;;;15.11;70.71;100775.06;5056682;28;20025;-88
2021/07/29 04:27:16;;;;;;;10.32;2.08;;;;;;;15.06;70.94;100775.41;5057564;28;20038;-89
2021/07/29 04:29:46;;;;;;;6.00;1.90;;;;;;;15.12;70.86;100780.28;5056817;28;20080;-87
2021/07/29 04:34:49;;;;;;;11.15;2.35;;;;;;;15.27;71.05;100777.44;5335397;22;20104;-87
2021/07/29 04:37:15;;;;;;;11.48;2.10;;;;;;;15.34;71.18;100769.84;4987500;28;20486;-85
2021/07/29 04:39:44;;;;;;;9.13;2.45;;;;;;;15.45;70.76;100776.06;5002914;28;20045;-86
2021/07/29 04:42:10;;;;;;;7.00;2.22;;;;;;;15.46;71.22;100776.91;5001799;28;20025;-85
2021/07/29 04:44:36;;;;;;;5.95;2.03;;;;;;;15.44;70.98;100768.19;5018703;28;20037;-85
2021/07/29 04:47:05;;;;;;;7.63;1.85;;;;;;;15.54;70.46;100771.88;5001168;28;20050;-85
2021/07/29 04:49:30;;;;;;;8.13;2.22;;;;;;;15.58;70.86;100767.13;5018275;28;20040;-83
2021/07/29 04:51:57;;;;;;;8.27;2.30;;;;;;;15.56;70.72;100783.25;5019389;28;20026;-84
2021/07/29 04:54:22;;;;;;;10.63;3.00;;;;;;;15.63;70.08;100775.66;5001428;28;20029;-82
2021/07/29 04:56:52;;;;;;;8.90;2.28;;;;;;;15.61;70.20;100776.72;5018973;28;20469;-83
2021/07/29 04:59:19;;;;;;;7.75;2.50;;;;;;;15.53;69.97;100782.66;5001353;28;20022;-84
2021/07/29 05:01:45;;;;;;;10.27;2.38;;;;;;;15.54;69.18;100771.00;5001494;28;20404;-85
2021/07/29 05:04:11;;;;;;;5.53;2.08;;;;;;;15.64;68.97;100788.00;5019459;28;20029;-85
2021/07/29 05:06:36;;;;;;;5.75;2.20;;;;;;;15.64;68.96;100780.00;4985000;28;20034;-84
2021/07/29 05:09:03;;;;;;;5.93;2.05;;;;;;;15.67;68.78;100787.75;5001679;28;20022;-85
2021/07/29 05:11:29;;;;;;;10.90;2.03;;;;;;;15.74;67.80;100787.28;5001631;28;20049;-84
2021/07/29 05:13:56;;;;;;;5.90;2.00;;;;;;;15.90;67.69;100781.66;5001419;28;20494;-84
2021/07/29 05:16:23;;;;;;;4.28;1.95;;;;;;;15.85;67.10;100782.00;4985028;28;20115;-84
2021/07/29 05:18:48;;;;;;;5.65;1.90;;;;;;;15.93;66.71;100786.75;5018928;28;20032;-84
2021/07/29 05:21:16;;;;;;;6.30;2.00;;;;;;;15.92;65.94;100777.88;5019080;28;20025;-83
2021/07/29 05:23:42;;;;;;;6.28;2.00;;;;;;;15.85;66.45;100770.47;5001203;28;20492;-83
2021/07/29 05:26:16;;;;;;;9.15;2.30;;;;;;;16.10;65.59;100773.97;5001084;28;20030;-82
2021/07/29 05:28:41;;;;;;;12.93;2.03;;;;;;;16.11;65.23;100784.53;5017188;28;20033;-82
2021/07/29 05:31:10;;;;;;;8.43;2.00;;;;;;;16.17;65.42;100794.72;5018170;28;20049;-82
2021/07/29 05:33:36;;;;;;;10.63;2.42;;;;;;;16.19;65.78;100792.75;5018874;28;20057;-83
2021/07/29 05:36:03;;;;;;;9.13;2.38;;;;;;;16.25;64.96;100798.59;5018926;28;20050;-84
2021/07/29 05:38:28;;;;;;;9.88;2.00;;;;;;;16.38;64.60;100798.50;5018881;28;20041;-82
2021/07/29 05:40:58;;;;;;;6.25;2.13;;;;;;;16.54;64.13;100790.97;5001368;28;20026;-82
2021/07/29 05:43:27;;;;;;;9.35;2.10;;;;;;;16.75;63.90;100784.03;5017852;28;20026;-82
2021/07/29 05:45:52;;;;;;;8.38;2.17;;;;;;;16.73;64.04;100786.81;5015965;28;20072;-84
2021/07/29 05:48:17;;;;;;;9.35;2.65;;;;;;;16.73;63.86;100785.97;5016244;28;20018;-83
2021/07/29 05:50:44;;;;;;;6.65;2.03;;;;;;;16.64;64.45;100790.22;5014080;28;20465;-83
2021/07/29 05:53:09;;;;;;;7.97;2.35;;;;;;;16.78;64.43;100795.31;4998559;28;20053;-83
2021/07/29 05:55:36;;;;;;;10.90;2.28;;;;;;;16.55;64.41;100798.00;5000844;28;20123;-82
2021/07/29 05:58:01;;;;;;;7.18;2.30;;;;;;;16.66;64.79;100791.78;5001939;28;20073;-84
2021/07/29 06:00:27;;;;;;;6.90;2.35;;;;;;;16.85;64.59;100801.00;5020615;28;20026;-84
2021/07/29 06:02:53;;;;;;;12.00;2.50;;;;;;;16.76;65.62;100799.94;5020493;28;20493;-82
2021/07/29 06:05:18;;;;;;;9.20;2.53;;;;;;;16.78;65.10;100798.00;5003190;28;20037;-84
2021/07/29 06:07:44;;;;;;;10.43;2.30;;;;;;;16.76;64.90;100807.94;5021109;28;20496;-83
2021/07/29 06:10:10;;;;;;;11.85;2.55;;;;;;;17.02;64.79;100810.31;5021457;28;20034;-83
2021/07/29 06:12:41;;;;;;;10.35;2.42;;;;;;;17.38;63.52;100815.50;5027328;28;20050;-83
2021/07/29 06:15:09;;;;;;;7.32;2.22;;;;;;;17.30;64.02;100824.13;5030155;28;20017;-83
2021/07/29 06:17:37;;;;;;;9.93;2.83;;;;;;;17.21;64.19;100822.19;5029014;28;20061;-83
2021/07/29 06:20:06;;;;;;;9.27;2.30;;;;;;;16.77;64.73;100836.31;5025179;28;20089;-83
2021/07/29 06:22:33;;;;;;;7.13;2.30;;;;;;;16.81;61.45;100840.47;5009047;28;20026;-84
2021/07/29 06:25:06;;;;;;;5.63;2.05;;;;;;;16.80;61.72;100829.91;5007817;28;20033;-85
2021/07/29 06:27:34;;;;;;;7.72;2.55;;;;;;;16.70;62.74;100827.13;5025904;28;20025;-83
2021/07/29 06:30:01;;;;;;;6.43;2.28;;;;;;;16.69;63.13;100842.28;4992606;28;20026;-82
2021/07/29 06:32:27;;;;;;;6.15;2.38;;;;;;;16.70;62.59;100832.47;5027726;28;20026;-82
2021/07/29 06:34:52;;;;;;;4.82;2.28;;;;;;;16.72;61.90;100838.53;5027143;28;20052;-82
2021/07/29 06:37:18;;;;;;;11.45;2.83;;;;;;;16.85;62.64;100832.22;4992850;28;20048;-83
2021/07/29 06:39:45;;;;;;;7.47;2.28;;;;;;;16.79;62.16;100849.56;5028301;28;20101;-85
2021/07/29 06:42:12;;;;;;;10.23;2.30;;;;;;;16.87;62.18;100843.59;5026241;28;20041;-83
2021/07/29 06:44:41;;;;;;;8.70;2.60;;;;;;;16.84;62.76;100842.03;5008644;28;20026;-85
2021/07/29 06:47:21;;;;;;;6.70;2.30;;;;;;;16.89;61.69;100837.19;5007594;28;20358;-83
2021/07/29 06:49:47;;;;;;;8.63;2.65;;;;;;;17.02;61.90;100853.06;5010476;28;20041;-83
2021/07/29 06:52:15;;;;;;;7.97;2.60;;;;;;;17.06;61.85;100859.88;5025028;28;20041;-84
2021/07/29 06:54:46;;;;;;;8.27;2.25;;;;;;;17.03;62.67;100841.41;5022818;28;20045;-83
2021/07/29 06:57:14;;;;;;;7.93;2.33;;;;;;;17.15;62.81;100846.75;5026836;28;20034;-83
2021/07/29 06:59:43;;;;;;;10.27;2.47;;;;;;;17.19;62.29;100865.06;5013842;28;20057;-84
2021/07/29 07:02:11;;;;;;;9.25;2.40;;;;;;;17.35;62.59;100850.50;5029423;28;20041;-83
2021/07/29 07:04:42;;;;;;;9.13;2.83;;;;;;;17.36;61.32;100870.03;4975707;28;20393;-84
2021/07/29 07:07:38;;;;;;;10.68;2.40;;;;;;;17.27;61.56;100850.25;5006495;28;20049;-85
2021/07/29 07:10:06;;;;;;;9.20;2.67;;;;;;;17.32;59.39;100864.06;4954920;28;20065;-84
2021/07/29 07:12:33;;;;;;;7.70;2.55;;;;;;;17.34;60.14;100864.81;4968949;28;20486;-84
2021/07/29 07:15:00;;;;;;;8.77;2.47;;;;;;;17.14;59.84;100863.75;4988224;28;20031;-83
2021/07/29 07:17:27;;;;;;;8.55;2.80;;;;;;;17.37;60.23;100879.78;4975297;28;20050;-84
2021/07/29 07:20:01;;;;;;;8.40;2.63;;;;;;;17.37;60.11;100872.59;4991744;28;20054;-84
2021/07/29 07:22:28;;;;;;;7.85;2.60;;;;;;;17.75;60.23;100885.59;4977005;28;20038;-82
2021/07/29 07:24:54;;;;;;;8.63;2.40;;;;;;;17.56;60.53;100877.28;4992907;28;20062;-83
2021/07/29 07:27:24;;;;;;;7.22;2.35;;;;;;;17.37;60.96;100885.13;4987540;28;20034;-83
2021/07/29 07:29:56;;;;;;;9.68;2.50;;;;;;;17.59;60.89;100860.13;4986629;28;20050;-84
2021/07/29 07:32:23;;;;;;;6.18;2.17;;;;;;;17.88;59.98;100874.72;4986388;28;20058;-83
2021/07/29 07:34:50;;;;;;;8.52;2.50;;;;;;;17.74;60.40;100886.56;4986198;28;20078;-83
2021/07/29 07:37:20;;;;;;;9.48;3.13;;;;;;;17.80;61.10;100878.03;4979939;28;20090;-82
2021/07/29 07:39:52;;;;;;;7.60;2.60;;;;;;;17.70;59.80;100890.47;4969089;28;20058;-85
2021/07/29 07:42:20;;;;;;;6.80;2.42;;;;;;;17.59;60.35;100889.53;5026685;28;20037;-83
2021/07/29 07:44:49;;;;;;;10.00;3.13;;;;;;;17.88;58.58;100888.09;4993939;28;20034;-83
2021/07/29 07:47:19;;;;;;;7.63;2.38;;;;;;;17.64;58.79;100897.16;4993225;28;20030;-86
2021/07/29 07:49:51;;;;;;;8.07;2.40;;;;;;;17.70;59.05;100909.22;5026409;28;20050;-82
2021/07/29 07:52:37;;;;;;;9.98;2.60;;;;;;;18.05;58.29;100887.53;5009398;28;20092;-82
2021/07/29 07:55:06;;;;;;;6.50;2.60;;;;;;;17.95;57.75;100909.84;4994778;28;20024;-82
2021/07/29 07:57:48;;;;;;;11.10;3.05;;;;;;;17.67;58.61;100902.25;5027666;28;20040;-81
2021/07/29 08:00:15;;;;;;;10.18;2.50;;;;;;;17.75;58.83;100898.97;5024996;28;20038;-82
2021/07/29 08:02:42;;;;;;;8.57;2.25;;;;;;;17.88;58.40;100909.50;5028635;28;20026;-82
2021/07/29 08:05:11;;;;;;;11.30;2.50;;;;;;;17.85;58.90;100909.75;5029050;28;20036;-82
2021/07/29 08:07:37;;;;;;;6.43;2.15;;;;;;;17.75;59.42;100898.97;4989595;28;20058;-79
2021/07/29 08:10:06;;;;;;;6.78;2.20;;;;;;;17.73;59.26;100904.44;4987556;28;20029;-81
2021/07/29 08:12:33;;;;;;;8.38;2.25;;;;;;;18.06;56.91;100920.47;5037172;28;20089;-80
2021/07/29 08:15:01;;;;;;;8.05;2.22;;;;;;;17.95;57.88;100916.00;5017400;28;20042;-81
2021/07/29 08:17:27;;;;;;;9.02;1.70;;;;;;;17.82;57.23;100902.84;5036070;28;20021;-81
2021/07/29 08:19:53;;;;;;;7.13;1.85;;;;;;;17.74;56.56;100922.19;5028291;28;20038;-81
2021/07/29 08:22:26;;;;;;;9.20;2.30;;;;;;;18.09;57.16;100925.56;5008285;28;20030;-80
2021/07/29 08:25:00;;;;;;;8.30;2.40;;;;;;;18.24;56.96;100910.09;5024669;28;20026;-81
2021/07/29 08:27:27;;;;;;;8.77;2.30;;;;;;;18.44;57.66;100912.88;5023204;28;20127;-81
2021/07/29 08:29:57;;;;;;;5.43;2.10;;;;;;;18.42;55.54;100907.66;4994019;28;20094;-80
2021/07/29 08:32:24;;;;;;;7.93;2.00;;;;;;;18.03;55.72;100920.72;5024834;28;20375;-81
2021/07/29 08:34:52;;;;;;;8.43;2.25;;;;;;;18.08;56.66;100920.34;5046664;23;20057;-80
2021/07/29 08:37:23;;;;;;;;;;;;;;;17.88;56.83;100920.19;5047597;28;20041;-80
2021/07/29 08:39:59;;;;;;;11.18;2.05;;;;;;;17.96;57.35;100939.13;5013710;28;19920;-82
2021/07/29 08:42:26;;;;;;;6.05;2.40;;;;;;;18.00;57.08;100915.63;5028564;28;20037;-81
2021/07/29 08:44:52;;;;;;;7.65;2.05;;;;;;;17.88;57.08;100934.44;5046472;28;20030;-81
2021/07/29 08:47:22;;;;;;;6.97;2.53;;;;;;;17.77;56.25;100916.59;5044279;28;20046;-83
2021/07/29 08:49:51;;;;;;;4.75;2.28;;;;;;;18.46;55.57;100932.34;5041733;28;20041;-81
2021/07/29 08:52:17;;;;;;;9.25;2.28;;;;;;;18.29;56.88;100933.78;5023234;28;20030;-80
2021/07/29 08:54:42;;;;;;;10.10;2.72;;;;;;;18.05;56.51;100951.75;5041189;28;20464;-81
2021/07/29 08:57:13;;;;;;;8.73;2.80;;;;;;;18.16;55.65;100964.25;5032066;28;20045;-81
2021/07/29 08:59:38;;;;;;;9.73;2.42;;;;;;;18.34;53.28;100930.72;5003478;28;20503;-80
2021/07/29 09:02:21;;;;;;;8.13;2.90;;;;;;;18.10;52.89;100950.50;5021061;28;20018;-82
2021/07/29 09:05:15;;;;;;;7.65;2.30;;;;;;;19.30;51.03;100930.50;5020315;28;20053;-83
2021/07/29 09:07:42;;;;;;;9.43;2.75;;;;;;;19.55;50.96;100914.03;5021238;28;20087;-82
2021/07/29 09:10:24;;;;;;;8.93;2.70;;;;;;;20.63;49.59;100937.31;5020201;28;20034;-81
2021/07/29 09:13:08;;;;;;;6.93;2.50;;;;;;;19.50;52.09;100935.91;5019810;28;20373;-81
2021/07/29 09:15:34;;;;;;;6.03;2.70;;;;;;;19.51;51.59;100953.69;4999919;28;20037;-82
2021/07/29 09:18:00;;;;;;;6.82;2.35;;;;;;;20.22;49.20;100959.03;4983008;28;20022;-82
2021/07/29 09:20:26;;;;;;;8.60;2.47;;;;;;;20.94;46.54;100949.69;5014921;28;20045;-82
2021/07/29 09:22:53;;;;;;;9.05;2.83;;;;;;;20.06;49.08;100954.22;5015466;28;20050;-82
2021/07/29 09:25:20;;;;;;;9.52;2.80;;;;;;;19.40;50.56;100956.50;4998669;28;20021;-81
2021/07/29 09:27:50;;;;;;;8.48;2.63;;;;;;;19.17;52.48;100941.44;4966279;28;20045;-84
2021/07/29 09:30:26;;;;;;;4.97;2.55;;;;;;;18.96;53.17;100957.56;5013815;28;20026;-85
2021/07/29 09:32:52;;;;;;;8.75;2.55;;;;;;;20.24;52.13;100958.88;5014227;28;20054;-84
2021/07/29 09:35:30;;;;;;;6.43;2.35;;;;;;;20.61;49.77;100958.13;5015294;28;20507;-85
2021/07/29 09:37:55;;;;;;;6.47;2.75;;;;;;;20.55;49.20;100990.94;5015786;28;20128;-84
2021/07/29 09:40:21;;;;;;;7.63;2.50;;;;;;;19.96;50.46;100962.22;4997444;28;20026;-82
2021/07/29 09:43:10;;;;;;;7.75;2.65;;;;;;;19.68;52.83;100980.84;4981936;28;20098;-81
2021/07/29 09:45:36;;;;;;;10.10;2.85;;;;;;;19.62;53.34;100973.34;5015612;28;20032;-82
2021/07/29 09:48:04;;;;;;;8.55;2.80;;;;;;;20.02;52.71;100982.34;5012771;28;20034;-81
2021/07/29 09:50:30;;;;;;;9.80;3.00;;;;;;;20.29;50.78;101008.47;4995254;28;20477;-80
2021/07/29 09:52:55;;;;;;;7.55;2.70;;;;;;;20.32;50.52;100985.00;4979535;28;20037;-85
2021/07/29 09:55:21;;;;;;;11.02;3.00;;;;;;;19.37;53.06;100992.47;4995119;28;20026;-82
2021/07/29 09:57:46;;;;;;;9.15;2.90;;;;;;;18.89;54.27;100977.84;5012607;28;20034;-81
2021/07/29 10:00:12;;;;;;;9.18;2.70;;;;;;;18.88;53.96;100990.38;5012608;28;20068;-83
2021/07/29 10:02:38;;;;;;;8.25;3.20;;;;;;;19.26;52.68;100988.06;4994779;28;20038;-82
2021/07/29 10:05:04;;;;;;;8.65;3.13;;;;;;;18.80;54.72;100985.69;5013727;28;20033;-81
2021/07/29 10:07:33;;;;;;;8.77;2.75;;;;;;;18.61;55.56;100969.47;5013245;28;20034;-82
2021/07/29 10:09:59;;;;;;;7.57;2.80;;;;;;;19.40;53.00;100970.75;4995459;28;20680;-82
2021/07/29 10:12:26;;;;;;;6.88;3.03;;;;;;;19.36;52.20;100993.44;4979126;28;20105;-82
2021/07/29 10:14:55;;;;;;;7.88;2.88;;;;;;;19.73;52.66;100972.38;5012495;28;20419;-82
2021/07/29 10:17:57;;;;;;;9.57;2.90;;;;;;;19.72;53.84;100994.81;5012468;28;20022;-81
2021/07/29 10:20:23;;;;;;;10.27;2.97;;;;;;;20.01;52.00;101010.09;4914053;29;20044;-82
2021/07/29 10:23:13;;;;;;;7.30;2.88;;;;;;;20.37;50.70;100986.28;4913900;29;20427;-85
2021/07/29 10:26:03;;;;;;;4.55;2.40;;;;;;;20.24;50.01;101004.53;4897716;29;20056;-83
2021/07/29 10:28:31;;;;;;;11.65;2.80;;;;;;;20.06;50.82;100991.78;4910853;29;20044;-82
2021/07/29 10:30:57;;;;;;;10.07;2.50;;;;;;;20.27;49.78;101012.28;4913864;29;20168;-82
2021/07/29 10:33:27;;;;;;;9.52;2.60;;;;;;;20.46;49.38;100998.00;4913461;29;20088;-82
2021/07/29 10:35:52;;;;;;;9.57;2.45;;;;;;;21.30;49.45;100981.25;4913684;29;20051;-82
2021/07/29 10:38:38;;;;;;;10.43;2.72;;;;;;;20.27;51.67;101006.94;4930873;29;20410;-81
2021/07/29 10:41:24;;;;;;;7.25;2.65;;;;;;;20.22;50.04;100993.94;4926223;29;20455;-82
2021/07/29 10:43:50;;;;;;;6.50;2.22;;;;;;;20.44;47.88;101040.28;4929138;29;20032;-81
2021/07/29 10:46:15;;;;;;;6.75;2.53;;;;;;;20.28;48.96;100990.66;4936115;29;20523;-81
2021/07/29 10:48:41;;;;;;;4.55;1.85;;;;;;;20.54;48.88;100990.06;4936486;29;20039;-82
2021/07/29 10:51:16;;;;;;;4.82;2.10;;;;;;;20.24;49.50;101001.84;4936172;29;20495;-81
2021/07/29 10:53:46;;;;;;;5.10;2.30;;;;;;;20.41;48.98;101017.22;4936085;29;20545;-81
2021/07/29 10:56:19;;;;;;;7.25;2.40;;;;;;;19.89;50.42;101039.75;4920973;29;20035;-81
2021/07/29 10:58:48;;;;;;;7.13;2.58;;;;;;;20.24;50.47;100996.47;5035490;28;20025;-80
2021/07/29 11:01:17;;;;;;;8.20;2.42;;;;;;;20.18;50.85;100981.75;5017367;28;20056;-81
2021/07/29 11:03:46;;;;;;;9.90;2.53;;;;;;;20.44;50.92;101034.91;5016916;28;20448;-81
2021/07/29 11:06:15;;;;;;;7.90;2.55;;;;;;;20.04;51.56;101005.34;5034466;28;20033;-83
2021/07/29 11:09:38;;;;;;;7.25;2.33;;;;;;;19.96;52.71;100990.88;5035025;28;20025;-83
2021/07/29 11:12:13;;;;;;;8.90;2.67;;;;;;;20.61;51.23;101016.34;4954988;29;20035;-82
2021/07/29 11:14:40;;;;;;;8.35;2.78;;;;;;;20.47;52.01;101002.38;4939112;29;20058;-82
2021/07/29 11:17:06;;;;;;;6.65;2.50;;;;;;;20.51;50.43;101014.53;4953659;29;20451;-82
2021/07/29 11:19:44;;;;;;;8.05;2.83;;;;;;;20.40;50.38;101014.66;4954125;29;20047;-81
2021/07/29 11:22:10;;;;;;;6.65;2.38;;;;;;;19.63;51.76;101009.88;4954502;29;20054;-81
2021/07/29 11:24:36;;;;;;;6.07;2.10;;;;;;;19.51;50.97;101014.53;4954764;28;20043;-82
2021/07/29 11:27:34;;;;;;;7.65;2.35;;;;;;;19.69;51.72;101014.72;4954640;29;20515;-82
2021/07/29 11:30:01;;;;;;;8.07;2.45;;;;;;;19.95;53.06;101019.56;4955022;28;20077;-82
2021/07/29 11:32:52;;;;;;;8.10;2.75;;;;;;;20.11;52.89;101050.44;4958544;29;20027;-84
2021/07/29 11:35:20;;;;;;;8.60;2.60;;;;;;;19.90;52.37;101008.41;4958495;29;20449;-82
2021/07/29 11:37:46;;;;;;;6.25;2.45;;;;;;;19.88;52.17;101018.41;4958877;29;20054;-82
2021/07/29 11:40:24;;;;;;;4.25;2.30;;;;;;;19.79;52.90;101010.22;4963029;29;20052;-83
2021/07/29 11:42:50;;;;;;;9.25;2.55;;;;;;;20.09;52.82;101022.88;5014761;28;20048;-84
2021/07/29 11:45:27;;;;;;;8.45;2.20;;;;;;;20.17;52.33;101033.75;5016796;28;20018;-83